DAL weather

Dallas Love Field
Dallas, Texas, United States

Public forecast

Using degrees Fahrenheit for public forecast. Weather courtesy of forecast.io.

Current aviation weather report (METAR) for Dallas Love Field

Retrieved 2019/10/14 20:53 UTC (1 hour ago):

KDAL 142053Z 14007KT 10SM -RA FEW030 SCT090 BKN120 OVC250 23/18 A2994 RMK AO2 RAB25 SLP133 P0000 60000 T02280183 56017

Aviation forecast (TAF) for Dallas Love Field

Retrieved 2019/10/14 18:45 UTC (3 hours ago):

TAF KDAL 141741Z 1418/1518 15008KT P6SM VCSH FEW050 SCT150 BKN200 FM150300 14007KT P6SM VCTS OVC023CB FM150600 17006KT P6SM VCSH OVC015 FM151300 21009KT P6SM SCT025 BKN080 TEMPO 1513/1516 BKN025